sensor_id;sensor_type;location;lat;lon;timestamp;temperature;humidity
2945;DHT22;1482;51.398;7.128;2023-06-22T00:01:52;22.00;1.00
2945;DHT22;1482;51.398;7.128;2023-06-22T00:04:18;22.00;1.00
2945;DHT22;1482;51.398;7.128;2023-06-22T00:06:43;22.00;1.00
2945;DHT22;1482;51.398;7.128;2023-06-22T00:09:09;21.80;1.00
2945;DHT22;1482;51.398;7.128;2023-06-22T00:11:36;21.80;1.00
2945;DHT22;1482;51.398;7.128;2023-06-22T00:14:02;21.90;1.00
2945;DHT22;1482;51.398;7.128;2023-06-22T00:16:27;21.90;1.00
2945;DHT22;1482;51.398;7.128;2023-06-22T00:18:53;21.80;1.00
2945;DHT22;1482;51.398;7.128;2023-06-22T00:21:19;21.90;1.00
2945;DHT22;1482;51.398;7.128;2023-06-22T00:23:46;21.80;1.00
2945;DHT22;1482;51.398;7.128;2023-06-22T00:26:12;21.90;1.00
2945;DHT22;1482;51.398;7.128;2023-06-22T00:28:38;21.90;1.00
2945;DHT22;1482;51.398;7.128;2023-06-22T00:31:03;21.90;1.00
2945;DHT22;1482;51.398;7.128;2023-06-22T00:33:29;21.90;1.00
2945;DHT22;1482;51.398;7.128;2023-06-22T00:35:54;21.90;1.00
2945;DHT22;1482;51.398;7.128;2023-06-22T00:38:20;21.90;1.00
2945;DHT22;1482;51.398;7.128;2023-06-22T00:40:46;21.90;1.00
2945;DHT22;1482;51.398;7.128;2023-06-22T00:43:11;21.80;1.00
2945;DHT22;1482;51.398;7.128;2023-06-22T00:45:37;21.80;1.00
2945;DHT22;1482;51.398;7.128;2023-06-22T00:48:03;21.80;1.00
2945;DHT22;1482;51.398;7.128;2023-06-22T00:50:31;21.80;1.00
2945;DHT22;1482;51.398;7.128;2023-06-22T00:53:01;21.90;1.00
2945;DHT22;1482;51.398;7.128;2023-06-22T00:55:28;21.90;1.00
2945;DHT22;1482;51.398;7.128;2023-06-22T00:57:53;21.90;1.00
2945;DHT22;1482;51.398;7.128;2023-06-22T01:00:25;21.90;1.00
2945;DHT22;1482;51.398;7.128;2023-06-22T01:02:52;21.90;1.00
2945;DHT22;1482;51.398;7.128;2023-06-22T01:05:19;21.90;1.00
2945;DHT22;1482;51.398;7.128;2023-06-22T01:08:05;21.90;1.00
2945;DHT22;1482;51.398;7.128;2023-06-22T01:13:25;21.90;1.00
2945;DHT22;1482;51.398;7.128;2023-06-22T01:18:29;21.80;1.00
2945;DHT22;1482;51.398;7.128;2023-06-22T01:20:56;21.70;1.00
2945;DHT22;1482;51.398;7.128;2023-06-22T01:28:58;21.40;1.00
2945;DHT22;1482;51.398;7.128;2023-06-22T01:31:27;21.40;1.00
2945;DHT22;1482;51.398;7.128;2023-06-22T01:33:58;21.40;1.00
2945;DHT22;1482;51.398;7.128;2023-06-22T01:36:25;21.40;1.00
2945;DHT22;1482;51.398;7.128;2023-06-22T01:38:52;21.40;1.00
2945;DHT22;1482;51.398;7.128;2023-06-22T01:41:19;21.40;1.00
2945;DHT22;1482;51.398;7.128;2023-06-22T01:43:46;21.40;1.00
2945;DHT22;1482;51.398;7.128;2023-06-22T01:46:13;21.40;1.00
2945;DHT22;1482;51.398;7.128;2023-06-22T01:48:40;21.50;1.00
2945;DHT22;1482;51.398;7.128;2023-06-22T01:51:06;21.40;1.00
2945;DHT22;1482;51.398;7.128;2023-06-22T01:53:31;21.30;1.00
2945;DHT22;1482;51.398;7.128;2023-06-22T01:55:57;21.20;1.00
2945;DHT22;1482;51.398;7.128;2023-06-22T01:58:27;21.10;1.00
2945;DHT22;1482;51.398;7.128;2023-06-22T02:01:18;21.00;1.00
2945;DHT22;1482;51.398;7.128;2023-06-22T02:03:55;21.00;1.00
2945;DHT22;1482;51.398;7.128;2023-06-22T02:06:31;21.00;1.00
2945;DHT22;1482;51.398;7.128;2023-06-22T02:09:02;21.10;1.00
2945;DHT22;1482;51.398;7.128;2023-06-22T02:11:30;21.10;1.00
2945;DHT22;1482;51.398;7.128;2023-06-22T02:13:57;21.10;1.00
2945;DHT22;1482;51.398;7.128;2023-06-22T02:16:23;21.10;1.00
2945;DHT22;1482;51.398;7.128;2023-06-22T02:18:50;21.20;1.00
2945;DHT22;1482;51.398;7.128;2023-06-22T02:21:19;21.20;1.00
2945;DHT22;1482;51.398;7.128;2023-06-22T02:23:45;21.10;1.00
2945;DHT22;1482;51.398;7.128;2023-06-22T02:26:11;21.10;1.00
2945;DHT22;1482;51.398;7.128;2023-06-22T02:28:37;21.10;1.00
2945;DHT22;1482;51.398;7.128;2023-06-22T02:31:02;21.10;1.00
2945;DHT22;1482;51.398;7.128;2023-06-22T02:33:28;21.10;1.00
2945;DHT22;1482;51.398;7.128;2023-06-22T02:35:53;21.10;1.00
2945;DHT22;1482;51.398;7.128;2023-06-22T02:38:19;20.90;1.00
2945;DHT22;1482;51.398;7.128;2023-06-22T02:40:45;20.70;1.00
2945;DHT22;1482;51.398;7.128;2023-06-22T02:43:11;20.60;1.00
2945;DHT22;1482;51.398;7.128;2023-06-22T02:45:37;20.60;1.00
2945;DHT22;1482;51.398;7.128;2023-06-22T02:48:02;20.50;1.00
2945;DHT22;1482;51.398;7.128;2023-06-22T02:50:28;20.40;1.00
2945;DHT22;1482;51.398;7.128;2023-06-22T02:52:53;20.30;1.00
2945;DHT22;1482;51.398;7.128;2023-06-22T02:55:19;20.20;1.00
2945;DHT22;1482;51.398;7.128;2023-06-22T02:57:45;20.20;1.00
2945;DHT22;1482;51.398;7.128;2023-06-22T03:00:12;20.20;1.00
2945;DHT22;1482;51.398;7.128;2023-06-22T03:02:45;20.20;1.00
2945;DHT22;1482;51.398;7.128;2023-06-22T03:05:12;20.10;1.00
2945;DHT22;1482;51.398;7.128;2023-06-22T03:07:44;20.20;1.00
2945;DHT22;1482;51.398;7.128;2023-06-22T03:10:10;20.20;1.00
2945;DHT22;1482;51.398;7.128;2023-06-22T03:12:37;20.20;1.00
2945;DHT22;1482;51.398;7.128;2023-06-22T03:15:07;20.30;1.00
2945;DHT22;1482;51.398;7.128;2023-06-22T03:17:34;20.40;1.00
2945;DHT22;1482;51.398;7.128;2023-06-22T03:20:00;20.40;1.00
2945;DHT22;1482;51.398;7.128;2023-06-22T03:22:26;20.50;1.00
2945;DHT22;1482;51.398;7.128;2023-06-22T03:24:51;20.50;1.00
2945;DHT22;1482;51.398;7.128;2023-06-22T03:27:17;20.60;1.00
2945;DHT22;1482;51.398;7.128;2023-06-22T03:29:43;20.60;1.00
2945;DHT22;1482;51.398;7.128;2023-06-22T03:32:10;20.40;1.00
2945;DHT22;1482;51.398;7.128;2023-06-22T03:34:35;20.30;1.00
2945;DHT22;1482;51.398;7.128;2023-06-22T03:37:04;20.30;1.00
2945;DHT22;1482;51.398;7.128;2023-06-22T03:39:30;20.30;1.00
2945;DHT22;1482;51.398;7.128;2023-06-22T03:41:55;20.30;1.00
2945;DHT22;1482;51.398;7.128;2023-06-22T03:44:21;20.40;1.00
2945;DHT22;1482;51.398;7.128;2023-06-22T03:46:46;20.40;1.00
2945;DHT22;1482;51.398;7.128;2023-06-22T03:49:12;20.40;1.00
2945;DHT22;1482;51.398;7.128;2023-06-22T03:51:37;20.40;1.00
2945;DHT22;1482;51.398;7.128;2023-06-22T03:54:03;20.40;1.00
2945;DHT22;1482;51.398;7.128;2023-06-22T03:56:28;20.30;1.00
2945;DHT22;1482;51.398;7.128;2023-06-22T03:58:54;20.30;1.00
2945;DHT22;1482;51.398;7.128;2023-06-22T04:01:19;20.20;1.00
2945;DHT22;1482;51.398;7.128;2023-06-22T04:03:45;20.30;1.00
2945;DHT22;1482;51.398;7.128;2023-06-22T04:06:13;20.30;1.00
2945;DHT22;1482;51.398;7.128;2023-06-22T04:08:38;20.30;1.00
2945;DHT22;1482;51.398;7.128;2023-06-22T04:11:04;20.30;1.00
2945;DHT22;1482;51.398;7.128;2023-06-22T04:13:30;20.40;1.00
2945;DHT22;1482;51.398;7.128;2023-06-22T04:15:55;20.30;1.00
2945;DHT22;1482;51.398;7.128;2023-06-22T04:18:21;20.30;1.00
2945;DHT22;1482;51.398;7.128;2023-06-22T04:20:47;20.30;1.00
2945;DHT22;1482;51.398;7.128;2023-06-22T04:23:13;20.30;1.00
2945;DHT22;1482;51.398;7.128;2023-06-22T04:25:39;20.40;1.00
2945;DHT22;1482;51.398;7.128;2023-06-22T04:28:04;20.50;1.00
2945;DHT22;1482;51.398;7.128;2023-06-22T04:30:32;20.60;1.00
2945;DHT22;1482;51.398;7.128;2023-06-22T04:32:57;20.60;1.00
2945;DHT22;1482;51.398;7.128;2023-06-22T04:35:26;20.60;1.00
2945;DHT22;1482;51.398;7.128;2023-06-22T04:37:55;20.50;1.00
2945;DHT22;1482;51.398;7.128;2023-06-22T04:40:22;20.60;1.00
2945;DHT22;1482;51.398;7.128;2023-06-22T04:42:48;20.80;1.00
2945;DHT22;1482;51.398;7.128;2023-06-22T04:45:18;20.70;1.00
2945;DHT22;1482;51.398;7.128;2023-06-22T04:47:44;20.70;1.00
2945;DHT22;1482;51.398;7.128;2023-06-22T04:50:14;20.50;1.00
2945;DHT22;1482;51.398;7.128;2023-06-22T04:52:40;20.50;1.00
2945;DHT22;1482;51.398;7.128;2023-06-22T04:55:06;20.40;1.00
2945;DHT22;1482;51.398;7.128;2023-06-22T04:57:32;20.30;1.00
2945;DHT22;1482;51.398;7.128;2023-06-22T04:59:58;20.20;1.00
2945;DHT22;1482;51.398;7.128;2023-06-22T05:02:36;20.20;1.00
2945;DHT22;1482;51.398;7.128;2023-06-22T05:05:02;20.20;1.00
2945;DHT22;1482;51.398;7.128;2023-06-22T05:07:36;20.20;1.00
2945;DHT22;1482;51.398;7.128;2023-06-22T05:10:04;20.30;1.00
2945;DHT22;1482;51.398;7.128;2023-06-22T05:12:30;20.20;1.00
2945;DHT22;1482;51.398;7.128;2023-06-22T05:14:56;20.20;1.00
2945;DHT22;1482;51.398;7.128;2023-06-22T05:17:22;20.10;9.60
2945;DHT22;1482;51.398;7.128;2023-06-22T05:19:47;20.10;29.40
2945;DHT22;1482;51.398;7.128;2023-06-22T05:22:16;20.00;35.40
2945;DHT22;1482;51.398;7.128;2023-06-22T05:24:42;20.00;56.40
2945;DHT22;1482;51.398;7.128;2023-06-22T05:27:08;20.00;46.70
2945;DHT22;1482;51.398;7.128;2023-06-22T05:29:34;20.00;56.90
2945;DHT22;1482;51.398;7.128;2023-06-22T05:32:00;20.00;57.20
2945;DHT22;1482;51.398;7.128;2023-06-22T05:34:26;20.00;76.60
2945;DHT22;1482;51.398;7.128;2023-06-22T05:36:52;19.90;74.80
2945;DHT22;1482;51.398;7.128;2023-06-22T05:39:17;19.90;99.90
2945;DHT22;1482;51.398;7.128;2023-06-22T05:41:44;20.00;95.60
2945;DHT22;1482;51.398;7.128;2023-06-22T05:44:09;20.00;99.90
2945;DHT22;1482;51.398;7.128;2023-06-22T05:46:35;20.00;99.90
2945;DHT22;1482;51.398;7.128;2023-06-22T05:49:01;20.10;99.90
2945;DHT22;1482;51.398;7.128;2023-06-22T05:51:26;20.10;99.90
2945;DHT22;1482;51.398;7.128;2023-06-22T05:53:52;20.30;99.90
2945;DHT22;1482;51.398;7.128;2023-06-22T05:56:17;20.30;99.90
2945;DHT22;1482;51.398;7.128;2023-06-22T05:58:43;20.40;91.10
2945;DHT22;1482;51.398;7.128;2023-06-22T06:01:08;20.40;85.00
2945;DHT22;1482;51.398;7.128;2023-06-22T06:03:34;20.60;78.70
2945;DHT22;1482;51.398;7.128;2023-06-22T06:06:09;20.60;41.90
2945;DHT22;1482;51.398;7.128;2023-06-22T06:08:36;20.50;23.30
2945;DHT22;1482;51.398;7.128;2023-06-22T06:11:02;20.60;7.30
2945;DHT22;1482;51.398;7.128;2023-06-22T06:13:28;20.70;20.70
2945;DHT22;1482;51.398;7.128;2023-06-22T06:15:53;20.70;14.60
2945;DHT22;1482;51.398;7.128;2023-06-22T06:18:20;20.90;28.00
2945;DHT22;1482;51.398;7.128;2023-06-22T06:20:46;21.00;6.20
2945;DHT22;1482;51.398;7.128;2023-06-22T06:23:12;21.20;1.00
2945;DHT22;1482;51.398;7.128;2023-06-22T06:25:37;21.30;1.00
2945;DHT22;1482;51.398;7.128;2023-06-22T06:28:03;21.50;1.00
2945;DHT22;1482;51.398;7.128;2023-06-22T06:30:28;21.60;1.00
2945;DHT22;1482;51.398;7.128;2023-06-22T06:32:54;21.80;1.00
2945;DHT22;1482;51.398;7.128;2023-06-22T06:35:21;22.10;1.00
2945;DHT22;1482;51.398;7.128;2023-06-22T06:37:48;22.40;1.00
2945;DHT22;1482;51.398;7.128;2023-06-22T06:40:15;22.70;1.00
2945;DHT22;1482;51.398;7.128;2023-06-22T06:42:46;22.90;1.00
2945;DHT22;1482;51.398;7.128;2023-06-22T06:45:16;23.00;1.00
2945;DHT22;1482;51.398;7.128;2023-06-22T06:47:42;23.20;1.00
2945;DHT22;1482;51.398;7.128;2023-06-22T06:50:08;23.20;1.00
2945;DHT22;1482;51.398;7.128;2023-06-22T06:52:35;23.20;1.00
2945;DHT22;1482;51.398;7.128;2023-06-22T06:55:00;23.20;1.00
2945;DHT22;1482;51.398;7.128;2023-06-22T06:57:26;23.20;1.00
2945;DHT22;1482;51.398;7.128;2023-06-22T06:59:56;23.00;1.00
2945;DHT22;1482;51.398;7.128;2023-06-22T07:02:22;22.90;1.00
2945;DHT22;1482;51.398;7.128;2023-06-22T07:04:47;22.60;1.00
2945;DHT22;1482;51.398;7.128;2023-06-22T07:07:14;22.70;1.00
2945;DHT22;1482;51.398;7.128;2023-06-22T07:09:39;22.50;1.00
2945;DHT22;1482;51.398;7.128;2023-06-22T07:12:05;22.50;1.00
2945;DHT22;1482;51.398;7.128;2023-06-22T07:14:31;22.50;1.00
2945;DHT22;1482;51.398;7.128;2023-06-22T07:16:57;22.30;1.00
2945;DHT22;1482;51.398;7.128;2023-06-22T07:19:27;22.20;1.00
2945;DHT22;1482;51.398;7.128;2023-06-22T07:21:53;22.00;1.00
2945;DHT22;1482;51.398;7.128;2023-06-22T07:24:21;22.00;1.00
2945;DHT22;1482;51.398;7.128;2023-06-22T07:26:50;22.00;1.00
2945;DHT22;1482;51.398;7.128;2023-06-22T07:29:17;21.90;1.00
2945;DHT22;1482;51.398;7.128;2023-06-22T07:31:43;22.00;1.00
2945;DHT22;1482;51.398;7.128;2023-06-22T07:34:09;22.10;1.00
2945;DHT22;1482;51.398;7.128;2023-06-22T07:36:34;22.10;1.00
2945;DHT22;1482;51.398;7.128;2023-06-22T07:39:02;22.20;1.00
2945;DHT22;1482;51.398;7.128;2023-06-22T07:41:28;22.30;1.00
2945;DHT22;1482;51.398;7.128;2023-06-22T07:43:53;22.30;1.00
2945;DHT22;1482;51.398;7.128;2023-06-22T07:46:19;22.50;7.90
2945;DHT22;1482;51.398;7.128;2023-06-22T07:48:44;22.50;1.00
2945;DHT22;1482;51.398;7.128;2023-06-22T07:51:10;22.50;1.00
2945;DHT22;1482;51.398;7.128;2023-06-22T07:53:40;22.60;1.00
2945;DHT22;1482;51.398;7.128;2023-06-22T07:56:05;22.70;1.00
2945;DHT22;1482;51.398;7.128;2023-06-22T07:58:32;22.70;1.00
2945;DHT22;1482;51.398;7.128;2023-06-22T08:00:58;22.60;1.00
2945;DHT22;1482;51.398;7.128;2023-06-22T08:03:24;22.50;18.70
2945;DHT22;1482;51.398;7.128;2023-06-22T08:05:49;22.60;16.00
2945;DHT22;1482;51.398;7.128;2023-06-22T08:08:15;22.40;1.00
2945;DHT22;1482;51.398;7.128;2023-06-22T08:10:40;22.20;41.50
2945;DHT22;1482;51.398;7.128;2023-06-22T08:13:07;22.30;29.30
2945;DHT22;1482;51.398;7.128;2023-06-22T08:15:33;22.30;46.20
2945;DHT22;1482;51.398;7.128;2023-06-22T08:17:59;22.30;55.70
2945;DHT22;1482;51.398;7.128;2023-06-22T08:20:25;22.30;48.30
2945;DHT22;1482;51.398;7.128;2023-06-22T08:22:52;22.30;40.80
2945;DHT22;1482;51.398;7.128;2023-06-22T08:25:18;22.30;30.70
2945;DHT22;1482;51.398;7.128;2023-06-22T08:27:47;22.50;87.40
2945;DHT22;1482;51.398;7.128;2023-06-22T08:30:14;22.70;43.00
2945;DHT22;1482;51.398;7.128;2023-06-22T08:32:40;23.20;1.00
2945;DHT22;1482;51.398;7.128;2023-06-22T08:35:06;23.30;1.00
2945;DHT22;1482;51.398;7.128;2023-06-22T08:37:34;23.80;1.00
2945;DHT22;1482;51.398;7.128;2023-06-22T08:40:01;23.50;1.00
2945;DHT22;1482;51.398;7.128;2023-06-22T08:42:27;23.50;1.00
2945;DHT22;1482;51.398;7.128;2023-06-22T08:44:52;23.60;1.00
2945;DHT22;1482;51.398;7.128;2023-06-22T08:47:19;23.50;1.00
2945;DHT22;1482;51.398;7.128;2023-06-22T08:49:45;23.30;1.00
2945;DHT22;1482;51.398;7.128;2023-06-22T08:52:10;23.50;1.00
2945;DHT22;1482;51.398;7.128;2023-06-22T08:54:36;23.80;1.00
2945;DHT22;1482;51.398;7.128;2023-06-22T08:57:02;23.80;1.00
2945;DHT22;1482;51.398;7.128;2023-06-22T08:59:27;23.90;1.00
2945;DHT22;1482;51.398;7.128;2023-06-22T09:01:53;23.90;1.00
2945;DHT22;1482;51.398;7.128;2023-06-22T09:04:19;24.20;1.00
2945;DHT22;1482;51.398;7.128;2023-06-22T09:06:47;24.60;1.00
2945;DHT22;1482;51.398;7.128;2023-06-22T09:09:13;25.00;1.00
2945;DHT22;1482;51.398;7.128;2023-06-22T09:11:40;25.50;1.00
2945;DHT22;1482;51.398;7.128;2023-06-22T09:14:05;25.40;1.00
2945;DHT22;1482;51.398;7.128;2023-06-22T09:16:31;26.20;1.00
2945;DHT22;1482;51.398;7.128;2023-06-22T09:18:57;26.60;1.00
2945;DHT22;1482;51.398;7.128;2023-06-22T09:21:23;27.30;1.00
2945;DHT22;1482;51.398;7.128;2023-06-22T09:23:49;28.10;1.00
2945;DHT22;1482;51.398;7.128;2023-06-22T09:26:17;28.70;1.00
2945;DHT22;1482;51.398;7.128;2023-06-22T09:28:43;29.00;1.00
2945;DHT22;1482;51.398;7.128;2023-06-22T09:31:08;29.30;1.00
2945;DHT22;1482;51.398;7.128;2023-06-22T09:33:35;29.60;1.00
2945;DHT22;1482;51.398;7.128;2023-06-22T09:36:00;29.60;1.00
2945;DHT22;1482;51.398;7.128;2023-06-22T09:38:26;30.00;1.00
2945;DHT22;1482;51.398;7.128;2023-06-22T09:40:51;30.40;1.00
2945;DHT22;1482;51.398;7.128;2023-06-22T09:43:17;30.50;1.00
2945;DHT22;1482;51.398;7.128;2023-06-22T09:45:42;30.50;1.00
2945;DHT22;1482;51.398;7.128;2023-06-22T09:48:08;30.40;1.00
2945;DHT22;1482;51.398;7.128;2023-06-22T09:50:35;30.60;1.00
2945;DHT22;1482;51.398;7.128;2023-06-22T09:53:01;30.70;1.00
2945;DHT22;1482;51.398;7.128;2023-06-22T09:55:27;30.90;1.00
2945;DHT22;1482;51.398;7.128;2023-06-22T09:57:52;30.90;1.00
2945;DHT22;1482;51.398;7.128;2023-06-22T10:00:18;31.10;1.00
2945;DHT22;1482;51.398;7.128;2023-06-22T10:02:44;31.00;1.00
2945;DHT22;1482;51.398;7.128;2023-06-22T10:05:10;31.00;1.00
2945;DHT22;1482;51.398;7.128;2023-06-22T10:07:36;30.70;1.00
2945;DHT22;1482;51.398;7.128;2023-06-22T10:10:06;30.50;1.00
2945;DHT22;1482;51.398;7.128;2023-06-22T10:12:32;30.30;1.00
2945;DHT22;1482;51.398;7.128;2023-06-22T10:14:57;30.40;1.00
2945;DHT22;1482;51.398;7.128;2023-06-22T10:17:23;30.50;1.00
2945;DHT22;1482;51.398;7.128;2023-06-22T10:19:48;30.30;1.00
2945;DHT22;1482;51.398;7.128;2023-06-22T10:22:14;30.50;1.00
2945;DHT22;1482;51.398;7.128;2023-06-22T10:24:39;30.70;1.00
2945;DHT22;1482;51.398;7.128;2023-06-22T10:27:10;30.60;1.00
2945;DHT22;1482;51.398;7.128;2023-06-22T10:29:36;30.50;1.00
2945;DHT22;1482;51.398;7.128;2023-06-22T10:32:01;30.10;1.00
2945;DHT22;1482;51.398;7.128;2023-06-22T10:34:27;29.70;1.00
2945;DHT22;1482;51.398;7.128;2023-06-22T10:36:53;29.80;1.00
2945;DHT22;1482;51.398;7.128;2023-06-22T10:39:18;30.00;1.00
2945;DHT22;1482;51.398;7.128;2023-06-22T10:41:44;29.80;1.00
2945;DHT22;1482;51.398;7.128;2023-06-22T10:44:09;30.00;1.00
2945;DHT22;1482;51.398;7.128;2023-06-22T10:46:36;30.30;1.00
2945;DHT22;1482;51.398;7.128;2023-06-22T10:49:01;30.50;1.00
2945;DHT22;1482;51.398;7.128;2023-06-22T10:51:27;30.50;1.00
2945;DHT22;1482;51.398;7.128;2023-06-22T10:53:53;30.30;1.00
2945;DHT22;1482;51.398;7.128;2023-06-22T10:56:19;30.00;1.00
2945;DHT22;1482;51.398;7.128;2023-06-22T10:58:45;29.90;1.00
2945;DHT22;1482;51.398;7.128;2023-06-22T11:01:11;29.70;1.00
2945;DHT22;1482;51.398;7.128;2023-06-22T11:03:36;29.50;1.00
2945;DHT22;1482;51.398;7.128;2023-06-22T11:06:02;29.30;1.00
2945;DHT22;1482;51.398;7.128;2023-06-22T11:08:28;28.70;1.00
2945;DHT22;1482;51.398;7.128;2023-06-22T11:10:53;28.40;1.00
2945;DHT22;1482;51.398;7.128;2023-06-22T11:13:19;28.20;1.00
2945;DHT22;1482;51.398;7.128;2023-06-22T11:15:44;27.70;1.00
2945;DHT22;1482;51.398;7.128;2023-06-22T11:18:10;27.60;1.00
2945;DHT22;1482;51.398;7.128;2023-06-22T11:20:35;27.50;1.00
2945;DHT22;1482;51.398;7.128;2023-06-22T11:23:04;27.40;1.00
2945;DHT22;1482;51.398;7.128;2023-06-22T11:25:31;27.20;1.00
2945;DHT22;1482;51.398;7.128;2023-06-22T11:27:57;27.10;1.00
2945;DHT22;1482;51.398;7.128;2023-06-22T11:30:23;26.90;1.00
2945;DHT22;1482;51.398;7.128;2023-06-22T11:32:48;26.70;1.00
2945;DHT22;1482;51.398;7.128;2023-06-22T11:35:14;26.50;1.00
2945;DHT22;1482;51.398;7.128;2023-06-22T11:37:39;26.40;1.00
2945;DHT22;1482;51.398;7.128;2023-06-22T11:40:05;26.20;1.00
2945;DHT22;1482;51.398;7.128;2023-06-22T11:42:34;26.00;1.00
2945;DHT22;1482;51.398;7.128;2023-06-22T11:45:00;25.90;1.00
2945;DHT22;1482;51.398;7.128;2023-06-22T11:47:25;25.80;1.00
2945;DHT22;1482;51.398;7.128;2023-06-22T11:49:51;25.70;33.30
2945;DHT22;1482;51.398;7.128;2023-06-22T11:52:16;25.60;7.20
2945;DHT22;1482;51.398;7.128;2023-06-22T11:54:43;25.40;21.10
2945;DHT22;1482;51.398;7.128;2023-06-22T11:57:08;25.30;61.50
2945;DHT22;1482;51.398;7.128;2023-06-22T11:59:34;25.20;49.70
2945;DHT22;1482;51.398;7.128;2023-06-22T12:02:00;25.00;42.40
2945;DHT22;1482;51.398;7.128;2023-06-22T12:04:25;24.60;99.90
2945;DHT22;1482;51.398;7.128;2023-06-22T12:06:51;24.40;99.90
2945;DHT22;1482;51.398;7.128;2023-06-22T12:09:17;24.30;99.90
2945;DHT22;1482;51.398;7.128;2023-06-22T12:11:42;24.40;99.90
2945;DHT22;1482;51.398;7.128;2023-06-22T12:14:08;24.40;99.90
2945;DHT22;1482;51.398;7.128;2023-06-22T12:16:33;24.50;99.90
2945;DHT22;1482;51.398;7.128;2023-06-22T12:18:59;24.60;99.90
2945;DHT22;1482;51.398;7.128;2023-06-22T12:21:24;24.70;99.90
2945;DHT22;1482;51.398;7.128;2023-06-22T12:23:50;24.70;99.90
2945;DHT22;1482;51.398;7.128;2023-06-22T12:26:16;24.80;99.90
2945;DHT22;1482;51.398;7.128;2023-06-22T12:28:41;24.70;99.90
2945;DHT22;1482;51.398;7.128;2023-06-22T12:31:07;24.60;99.90
2945;DHT22;1482;51.398;7.128;2023-06-22T12:33:32;24.30;99.90
2945;DHT22;1482;51.398;7.128;2023-06-22T12:35:58;24.20;99.90
2945;DHT22;1482;51.398;7.128;2023-06-22T12:38:23;24.10;99.90
2945;DHT22;1482;51.398;7.128;2023-06-22T12:40:52;23.70;99.90
2945;DHT22;1482;51.398;7.128;2023-06-22T12:43:18;23.40;1.00
2945;DHT22;1482;51.398;7.128;2023-06-22T12:45:44;23.10;1.00
2945;DHT22;1482;51.398;7.128;2023-06-22T12:48:09;23.10;32.10
2945;DHT22;1482;51.398;7.128;2023-06-22T12:50:35;22.90;99.90
2945;DHT22;1482;51.398;7.128;2023-06-22T12:53:00;22.90;1.00
2945;DHT22;1482;51.398;7.128;2023-06-22T12:55:27;22.90;1.00
2945;DHT22;1482;51.398;7.128;2023-06-22T12:57:53;22.80;99.90
2945;DHT22;1482;51.398;7.128;2023-06-22T13:00:19;22.90;1.00
2945;DHT22;1482;51.398;7.128;2023-06-22T13:02:45;22.80;99.90
2945;DHT22;1482;51.398;7.128;2023-06-22T13:05:11;22.60;99.90
2945;DHT22;1482;51.398;7.128;2023-06-22T13:07:36;22.70;99.90
2945;DHT22;1482;51.398;7.128;2023-06-22T13:10:02;22.70;1.00
2945;DHT22;1482;51.398;7.128;2023-06-22T13:12:28;23.00;20.80
2945;DHT22;1482;51.398;7.128;2023-06-22T13:14:53;23.00;35.50
2945;DHT22;1482;51.398;7.128;2023-06-22T13:17:19;23.20;1.00
2945;DHT22;1482;51.398;7.128;2023-06-22T13:19:44;23.10;1.00
2945;DHT22;1482;51.398;7.128;2023-06-22T13:22:32;23.20;1.00
2945;DHT22;1482;51.398;7.128;2023-06-22T13:25:00;23.20;1.00
2945;DHT22;1482;51.398;7.128;2023-06-22T13:27:25;23.20;99.90
2945;DHT22;1482;51.398;7.128;2023-06-22T13:29:52;23.30;99.90
2945;DHT22;1482;51.398;7.128;2023-06-22T13:32:17;23.20;1.00
2945;DHT22;1482;51.398;7.128;2023-06-22T13:34:43;23.40;1.00
2945;DHT22;1482;51.398;7.128;2023-06-22T13:37:09;23.30;99.90
2945;DHT22;1482;51.398;7.128;2023-06-22T13:39:34;23.30;99.90
2945;DHT22;1482;51.398;7.128;2023-06-22T13:42:00;23.20;99.90
2945;DHT22;1482;51.398;7.128;2023-06-22T13:44:25;23.40;99.90
2945;DHT22;1482;51.398;7.128;2023-06-22T13:46:54;23.80;99.90
2945;DHT22;1482;51.398;7.128;2023-06-22T13:49:20;23.80;99.90
2945;DHT22;1482;51.398;7.128;2023-06-22T13:51:47;23.80;99.90
2945;DHT22;1482;51.398;7.128;2023-06-22T13:54:13;24.00;99.90
2945;DHT22;1482;51.398;7.128;2023-06-22T13:56:39;24.30;99.90
2945;DHT22;1482;51.398;7.128;2023-06-22T13:59:04;24.60;99.90
2945;DHT22;1482;51.398;7.128;2023-06-22T14:01:30;24.70;99.90
2945;DHT22;1482;51.398;7.128;2023-06-22T14:03:55;24.90;99.90
2945;DHT22;1482;51.398;7.128;2023-06-22T14:06:21;24.70;99.90
2945;DHT22;1482;51.398;7.128;2023-06-22T14:08:46;24.60;99.90
2945;DHT22;1482;51.398;7.128;2023-06-22T14:11:12;24.70;99.90
2945;DHT22;1482;51.398;7.128;2023-06-22T14:13:37;24.70;99.90
2945;DHT22;1482;51.398;7.128;2023-06-22T14:16:03;24.60;99.90
2945;DHT22;1482;51.398;7.128;2023-06-22T14:18:29;24.60;99.90
2945;DHT22;1482;51.398;7.128;2023-06-22T14:20:55;24.60;99.90
2945;DHT22;1482;51.398;7.128;2023-06-22T14:23:20;24.50;97.00
2945;DHT22;1482;51.398;7.128;2023-06-22T14:25:46;24.60;99.90
2945;DHT22;1482;51.398;7.128;2023-06-22T14:28:12;24.80;99.90
2945;DHT22;1482;51.398;7.128;2023-06-22T14:30:37;24.80;99.90
2945;DHT22;1482;51.398;7.128;2023-06-22T14:33:03;24.80;79.20
2945;DHT22;1482;51.398;7.128;2023-06-22T14:35:28;24.90;73.60
2945;DHT22;1482;51.398;7.128;2023-06-22T14:37:54;25.00;56.20
2945;DHT22;1482;51.398;7.128;2023-06-22T14:40:19;24.80;51.40
2945;DHT22;1482;51.398;7.128;2023-06-22T14:42:45;24.80;49.80
2945;DHT22;1482;51.398;7.128;2023-06-22T14:45:10;24.60;54.90
2945;DHT22;1482;51.398;7.128;2023-06-22T14:47:36;24.60;81.90
2945;DHT22;1482;51.398;7.128;2023-06-22T14:50:02;24.60;99.10
2945;DHT22;1482;51.398;7.128;2023-06-22T14:52:27;24.40;99.90
2945;DHT22;1482;51.398;7.128;2023-06-22T14:54:53;24.20;99.90
2945;DHT22;1482;51.398;7.128;2023-06-22T14:57:19;24.00;99.90
2945;DHT22;1482;51.398;7.128;2023-06-22T14:59:46;23.70;99.90
2945;DHT22;1482;51.398;7.128;2023-06-22T15:02:12;23.70;99.90
2945;DHT22;1482;51.398;7.128;2023-06-22T15:04:38;23.80;99.90
2945;DHT22;1482;51.398;7.128;2023-06-22T15:07:04;23.70;99.90
2945;DHT22;1482;51.398;7.128;2023-06-22T15:09:29;23.50;99.90
2945;DHT22;1482;51.398;7.128;2023-06-22T15:11:55;23.60;99.90
2945;DHT22;1482;51.398;7.128;2023-06-22T15:14:20;23.50;99.90
2945;DHT22;1482;51.398;7.128;2023-06-22T15:16:46;23.50;99.90
2945;DHT22;1482;51.398;7.128;2023-06-22T15:19:11;23.20;99.90
2945;DHT22;1482;51.398;7.128;2023-06-22T15:21:38;23.10;99.90
2945;DHT22;1482;51.398;7.128;2023-06-22T15:24:04;23.10;99.90
2945;DHT22;1482;51.398;7.128;2023-06-22T15:26:29;23.00;99.90
2945;DHT22;1482;51.398;7.128;2023-06-22T15:28:55;23.00;99.90
2945;DHT22;1482;51.398;7.128;2023-06-22T15:31:21;22.90;99.90
2945;DHT22;1482;51.398;7.128;2023-06-22T15:33:46;22.90;99.90
2945;DHT22;1482;51.398;7.128;2023-06-22T15:36:12;22.80;99.90
2945;DHT22;1482;51.398;7.128;2023-06-22T15:38:37;22.70;99.90
2945;DHT22;1482;51.398;7.128;2023-06-22T15:41:03;22.70;99.90
2945;DHT22;1482;51.398;7.128;2023-06-22T15:43:29;22.60;99.90
2945;DHT22;1482;51.398;7.128;2023-06-22T15:45:54;22.60;1.00
2945;DHT22;1482;51.398;7.128;2023-06-22T15:48:23;22.70;1.00
2945;DHT22;1482;51.398;7.128;2023-06-22T15:50:49;22.70;99.90
2945;DHT22;1482;51.398;7.128;2023-06-22T15:53:14;22.80;48.20
2945;DHT22;1482;51.398;7.128;2023-06-22T15:55:40;22.60;1.00
2945;DHT22;1482;51.398;7.128;2023-06-22T15:58:07;22.50;99.90
2945;DHT22;1482;51.398;7.128;2023-06-22T16:00:34;22.60;77.90
2945;DHT22;1482;51.398;7.128;2023-06-22T16:02:59;22.50;99.90
2945;DHT22;1482;51.398;7.128;2023-06-22T16:05:25;22.50;99.90
2945;DHT22;1482;51.398;7.128;2023-06-22T16:07:51;22.20;1.00
2945;DHT22;1482;51.398;7.128;2023-06-22T16:10:16;22.00;1.00
2945;DHT22;1482;51.398;7.128;2023-06-22T16:12:43;21.90;18.50
2945;DHT22;1482;51.398;7.128;2023-06-22T16:15:13;21.90;1.00
2945;DHT22;1482;51.398;7.128;2023-06-22T16:17:39;21.90;26.50